sensor_id;sensor_type;location;lat;lon;timestamp;P1;durP1;ratioP1;P2;durP2;ratioP2
72895;SDS011;61036;53.224;6.554;2024-02-21T00:01:21;16.33;;;4.40;;
72895;SDS011;61036;53.224;6.554;2024-02-21T00:03:47;15.30;;;4.43;;
72895;SDS011;61036;53.224;6.554;2024-02-21T00:06:13;14.63;;;4.83;;
72895;SDS011;61036;53.224;6.554;2024-02-21T00:08:38;17.83;;;4.77;;
72895;SDS011;61036;53.224;6.554;2024-02-21T00:11:04;15.47;;;4.50;;
72895;SDS011;61036;53.224;6.554;2024-02-21T00:13:29;16.10;;;4.17;;
72895;SDS011;61036;53.224;6.554;2024-02-21T00:15:55;16.70;;;4.67;;
72895;SDS011;61036;53.224;6.554;2024-02-21T00:18:20;15.70;;;4.80;;
72895;SDS011;61036;53.224;6.554;2024-02-21T00:20:46;14.73;;;5.00;;
72895;SDS011;61036;53.224;6.554;2024-02-21T00:23:11;15.77;;;4.00;;
72895;SDS011;61036;53.224;6.554;2024-02-21T00:25:37;19.40;;;5.43;;
72895;SDS011;61036;53.224;6.554;2024-02-21T00:28:03;15.83;;;4.63;;
72895;SDS011;61036;53.224;6.554;2024-02-21T00:30:28;15.23;;;5.00;;
72895;SDS011;61036;53.224;6.554;2024-02-21T00:32:54;17.30;;;4.47;;
72895;SDS011;61036;53.224;6.554;2024-02-21T00:35:20;16.77;;;4.37;;
72895;SDS011;61036;53.224;6.554;2024-02-21T00:37:45;20.40;;;5.43;;
72895;SDS011;61036;53.224;6.554;2024-02-21T00:40:11;20.47;;;4.60;;
72895;SDS011;61036;53.224;6.554;2024-02-21T00:42:36;23.90;;;5.03;;
72895;SDS011;61036;53.224;6.554;2024-02-21T00:45:02;13.53;;;4.50;;
72895;SDS011;61036;53.224;6.554;2024-02-21T00:47:27;12.87;;;4.47;;
72895;SDS011;61036;53.224;6.554;2024-02-21T00:49:54;19.13;;;6.03;;
72895;SDS011;61036;53.224;6.554;2024-02-21T00:52:20;16.73;;;5.30;;
72895;SDS011;61036;53.224;6.554;2024-02-21T00:54:45;17.60;;;6.57;;
72895;SDS011;61036;53.224;6.554;2024-02-21T00:57:11;19.50;;;5.53;;
72895;SDS011;61036;53.224;6.554;2024-02-21T00:59:37;19.73;;;6.10;;
72895;SDS011;61036;53.224;6.554;2024-02-21T01:02:02;17.93;;;6.10;;
72895;SDS011;61036;53.224;6.554;2024-02-21T01:04:28;20.83;;;7.10;;
72895;SDS011;61036;53.224;6.554;2024-02-21T01:06:53;19.53;;;6.13;;
72895;SDS011;61036;53.224;6.554;2024-02-21T01:09:19;20.03;;;6.83;;
72895;SDS011;61036;53.224;6.554;2024-02-21T01:11:44;17.40;;;6.07;;
72895;SDS011;61036;53.224;6.554;2024-02-21T01:14:10;16.77;;;6.20;;
72895;SDS011;61036;53.224;6.554;2024-02-21T01:16:36;16.40;;;5.63;;
72895;SDS011;61036;53.224;6.554;2024-02-21T01:19:01;17.53;;;6.70;;
72895;SDS011;61036;53.224;6.554;2024-02-21T01:21:27;18.13;;;7.00;;
72895;SDS011;61036;53.224;6.554;2024-02-21T01:23:53;19.00;;;6.30;;
72895;SDS011;61036;53.224;6.554;2024-02-21T01:26:18;16.30;;;6.20;;
72895;SDS011;61036;53.224;6.554;2024-02-21T01:28:44;14.90;;;7.20;;
72895;SDS011;61036;53.224;6.554;2024-02-21T01:31:09;22.07;;;7.80;;
72895;SDS011;61036;53.224;6.554;2024-02-21T01:33:35;20.13;;;7.60;;
72895;SDS011;61036;53.224;6.554;2024-02-21T01:36:01;15.80;;;6.23;;
72895;SDS011;61036;53.224;6.554;2024-02-21T01:38:27;14.73;;;6.67;;
72895;SDS011;61036;53.224;6.554;2024-02-21T01:40:53;19.07;;;7.03;;
72895;SDS011;61036;53.224;6.554;2024-02-21T01:43:19;19.87;;;7.37;;
72895;SDS011;61036;53.224;6.554;2024-02-21T01:45:50;16.90;;;7.43;;
72895;SDS011;61036;53.224;6.554;2024-02-21T01:48:17;20.57;;;7.67;;
72895;SDS011;61036;53.224;6.554;2024-02-21T01:50:46;16.17;;;6.30;;
72895;SDS011;61036;53.224;6.554;2024-02-21T01:53:14;21.23;;;7.43;;
72895;SDS011;61036;53.224;6.554;2024-02-21T01:55:47;17.07;;;7.07;;
72895;SDS011;61036;53.224;6.554;2024-02-21T01:58:14;21.10;;;7.63;;
72895;SDS011;61036;53.224;6.554;2024-02-21T02:00:43;18.50;;;6.53;;
72895;SDS011;61036;53.224;6.554;2024-02-21T02:03:10;13.47;;;6.07;;
72895;SDS011;61036;53.224;6.554;2024-02-21T02:05:48;13.87;;;7.07;;
72895;SDS011;61036;53.224;6.554;2024-02-21T02:08:15;11.90;;;5.03;;
72895;SDS011;61036;53.224;6.554;2024-02-21T02:10:41;13.67;;;5.97;;
72895;SDS011;61036;53.224;6.554;2024-02-21T02:13:06;14.27;;;5.63;;
72895;SDS011;61036;53.224;6.554;2024-02-21T02:15:42;15.47;;;6.10;;
72895;SDS011;61036;53.224;6.554;2024-02-21T02:18:09;10.57;;;6.13;;
72895;SDS011;61036;53.224;6.554;2024-02-21T02:20:35;10.53;;;5.00;;
72895;SDS011;61036;53.224;6.554;2024-02-21T02:23:06;12.67;;;5.40;;
72895;SDS011;61036;53.224;6.554;2024-02-21T02:25:35;13.07;;;5.83;;
72895;SDS011;61036;53.224;6.554;2024-02-21T02:28:01;16.87;;;5.90;;
72895;SDS011;61036;53.224;6.554;2024-02-21T02:30:26;15.90;;;5.17;;
72895;SDS011;61036;53.224;6.554;2024-02-21T02:32:52;13.70;;;5.67;;
72895;SDS011;61036;53.224;6.554;2024-02-21T02:35:17;18.80;;;5.73;;
72895;SDS011;61036;53.224;6.554;2024-02-21T02:37:49;20.13;;;5.50;;
72895;SDS011;61036;53.224;6.554;2024-02-21T02:40:16;17.33;;;5.57;;
72895;SDS011;61036;53.224;6.554;2024-02-21T02:42:42;12.93;;;5.70;;
72895;SDS011;61036;53.224;6.554;2024-02-21T02:45:07;12.27;;;5.10;;
72895;SDS011;61036;53.224;6.554;2024-02-21T02:47:33;13.70;;;5.43;;
72895;SDS011;61036;53.224;6.554;2024-02-21T02:50:00;14.80;;;5.40;;
72895;SDS011;61036;53.224;6.554;2024-02-21T02:52:25;13.77;;;4.97;;
72895;SDS011;61036;53.224;6.554;2024-02-21T02:54:51;13.43;;;4.87;;
72895;SDS011;61036;53.224;6.554;2024-02-21T02:57:18;22.40;;;6.40;;
72895;SDS011;61036;53.224;6.554;2024-02-21T02:59:47;13.20;;;5.10;;
72895;SDS011;61036;53.224;6.554;2024-02-21T03:02:14;17.57;;;6.60;;
72895;SDS011;61036;53.224;6.554;2024-02-21T03:04:39;22.93;;;7.27;;
72895;SDS011;61036;53.224;6.554;2024-02-21T03:07:05;20.97;;;6.93;;
72895;SDS011;61036;53.224;6.554;2024-02-21T03:09:31;24.20;;;7.97;;
72895;SDS011;61036;53.224;6.554;2024-02-21T03:11:57;21.87;;;6.43;;
72895;SDS011;61036;53.224;6.554;2024-02-21T03:14:28;20.57;;;6.03;;
72895;SDS011;61036;53.224;6.554;2024-02-21T03:16:53;20.07;;;6.23;;
72895;SDS011;61036;53.224;6.554;2024-02-21T03:19:19;18.50;;;5.93;;
72895;SDS011;61036;53.224;6.554;2024-02-21T03:21:44;18.27;;;5.47;;
72895;SDS011;61036;53.224;6.554;2024-02-21T03:24:10;22.03;;;6.10;;
72895;SDS011;61036;53.224;6.554;2024-02-21T03:26:35;23.47;;;6.73;;
72895;SDS011;61036;53.224;6.554;2024-02-21T03:29:01;22.17;;;6.30;;
72895;SDS011;61036;53.224;6.554;2024-02-21T03:31:26;20.30;;;6.37;;
72895;SDS011;61036;53.224;6.554;2024-02-21T03:33:52;21.50;;;5.70;;
72895;SDS011;61036;53.224;6.554;2024-02-21T03:36:18;18.90;;;5.97;;
72895;SDS011;61036;53.224;6.554;2024-02-21T03:38:43;19.57;;;5.83;;
72895;SDS011;61036;53.224;6.554;2024-02-21T03:41:10;24.10;;;6.67;;
72895;SDS011;61036;53.224;6.554;2024-02-21T03:43:37;18.50;;;6.70;;
72895;SDS011;61036;53.224;6.554;2024-02-21T03:46:03;20.83;;;5.83;;
72895;SDS011;61036;53.224;6.554;2024-02-21T03:48:28;21.97;;;5.90;;
72895;SDS011;61036;53.224;6.554;2024-02-21T03:50:54;21.23;;;6.23;;
72895;SDS011;61036;53.224;6.554;2024-02-21T03:53:20;25.13;;;6.77;;
72895;SDS011;61036;53.224;6.554;2024-02-21T03:55:45;22.87;;;6.20;;
72895;SDS011;61036;53.224;6.554;2024-02-21T03:58:10;20.90;;;6.37;;
72895;SDS011;61036;53.224;6.554;2024-02-21T04:00:36;20.00;;;5.63;;
72895;SDS011;61036;53.224;6.554;2024-02-21T04:03:02;22.30;;;6.37;;
72895;SDS011;61036;53.224;6.554;2024-02-21T04:05:28;19.43;;;7.10;;
72895;SDS011;61036;53.224;6.554;2024-02-21T04:07:53;24.07;;;7.60;;
72895;SDS011;61036;53.224;6.554;2024-02-21T04:10:19;23.87;;;7.53;;
72895;SDS011;61036;53.224;6.554;2024-02-21T04:12:44;20.97;;;6.63;;
72895;SDS011;61036;53.224;6.554;2024-02-21T04:15:10;23.00;;;6.57;;
72895;SDS011;61036;53.224;6.554;2024-02-21T04:17:36;22.23;;;7.00;;
72895;SDS011;61036;53.224;6.554;2024-02-21T04:20:02;20.97;;;6.70;;
72895;SDS011;61036;53.224;6.554;2024-02-21T04:22:30;19.23;;;6.43;;
72895;SDS011;61036;53.224;6.554;2024-02-21T04:24:59;20.93;;;7.43;;
72895;SDS011;61036;53.224;6.554;2024-02-21T04:27:25;25.27;;;8.07;;
72895;SDS011;61036;53.224;6.554;2024-02-21T04:29:50;24.20;;;6.63;;
72895;SDS011;61036;53.224;6.554;2024-02-21T04:32:16;18.97;;;6.20;;
72895;SDS011;61036;53.224;6.554;2024-02-21T04:34:41;23.00;;;7.23;;
72895;SDS011;61036;53.224;6.554;2024-02-21T04:37:07;17.53;;;6.80;;
72895;SDS011;61036;53.224;6.554;2024-02-21T04:39:32;20.67;;;6.67;;
72895;SDS011;61036;53.224;6.554;2024-02-21T04:41:58;19.50;;;6.90;;
72895;SDS011;61036;53.224;6.554;2024-02-21T04:44:23;22.23;;;7.03;;
72895;SDS011;61036;53.224;6.554;2024-02-21T04:46:49;19.93;;;6.17;;
72895;SDS011;61036;53.224;6.554;2024-02-21T04:49:14;18.80;;;6.97;;
72895;SDS011;61036;53.224;6.554;2024-02-21T04:51:40;26.30;;;7.90;;
72895;SDS011;61036;53.224;6.554;2024-02-21T04:54:05;16.90;;;5.80;;
72895;SDS011;61036;53.224;6.554;2024-02-21T04:56:31;22.03;;;7.30;;
72895;SDS011;61036;53.224;6.554;2024-02-21T04:58:56;25.40;;;6.30;;
72895;SDS011;61036;53.224;6.554;2024-02-21T05:01:22;19.23;;;7.37;;
72895;SDS011;61036;53.224;6.554;2024-02-21T05:03:47;24.87;;;6.93;;
72895;SDS011;61036;53.224;6.554;2024-02-21T05:06:13;21.40;;;6.87;;
72895;SDS011;61036;53.224;6.554;2024-02-21T05:08:39;18.90;;;7.30;;
72895;SDS011;61036;53.224;6.554;2024-02-21T05:11:05;21.60;;;6.70;;
72895;SDS011;61036;53.224;6.554;2024-02-21T05:13:30;19.40;;;6.03;;
72895;SDS011;61036;53.224;6.554;2024-02-21T05:15:56;18.40;;;6.57;;
72895;SDS011;61036;53.224;6.554;2024-02-21T05:18:21;19.80;;;6.43;;
72895;SDS011;61036;53.224;6.554;2024-02-21T05:20:47;22.43;;;6.90;;
72895;SDS011;61036;53.224;6.554;2024-02-21T05:23:12;19.63;;;6.37;;
72895;SDS011;61036;53.224;6.554;2024-02-21T05:25:38;21.03;;;6.30;;
72895;SDS011;61036;53.224;6.554;2024-02-21T05:28:04;26.10;;;7.90;;
72895;SDS011;61036;53.224;6.554;2024-02-21T05:30:31;27.53;;;7.67;;
72895;SDS011;61036;53.224;6.554;2024-02-21T05:32:56;22.97;;;7.07;;
72895;SDS011;61036;53.224;6.554;2024-02-21T05:35:28;20.33;;;7.23;;
72895;SDS011;61036;53.224;6.554;2024-02-21T05:37:54;23.53;;;6.93;;
72895;SDS011;61036;53.224;6.554;2024-02-21T05:40:19;20.57;;;6.73;;
72895;SDS011;61036;53.224;6.554;2024-02-21T05:42:45;25.07;;;7.40;;
72895;SDS011;61036;53.224;6.554;2024-02-21T05:45:10;24.40;;;6.80;;
72895;SDS011;61036;53.224;6.554;2024-02-21T05:47:36;23.90;;;6.53;;
72895;SDS011;61036;53.224;6.554;2024-02-21T05:50:01;20.73;;;6.33;;
72895;SDS011;61036;53.224;6.554;2024-02-21T05:52:27;18.87;;;6.63;;
72895;SDS011;61036;53.224;6.554;2024-02-21T05:54:53;19.53;;;6.97;;
72895;SDS011;61036;53.224;6.554;2024-02-21T05:57:18;25.30;;;7.90;;
72895;SDS011;61036;53.224;6.554;2024-02-21T05:59:44;19.47;;;6.73;;
72895;SDS011;61036;53.224;6.554;2024-02-21T06:02:09;22.50;;;6.30;;
72895;SDS011;61036;53.224;6.554;2024-02-21T06:04:35;18.93;;;6.67;;
72895;SDS011;61036;53.224;6.554;2024-02-21T06:07:01;26.60;;;7.40;;
72895;SDS011;61036;53.224;6.554;2024-02-21T06:09:27;26.47;;;8.90;;
72895;SDS011;61036;53.224;6.554;2024-02-21T06:11:53;22.53;;;7.57;;
72895;SDS011;61036;53.224;6.554;2024-02-21T06:14:19;22.17;;;7.53;;
72895;SDS011;61036;53.224;6.554;2024-02-21T06:16:45;26.20;;;8.90;;
72895;SDS011;61036;53.224;6.554;2024-02-21T06:19:10;19.27;;;6.60;;
72895;SDS011;61036;53.224;6.554;2024-02-21T06:21:36;26.37;;;7.63;;
72895;SDS011;61036;53.224;6.554;2024-02-21T06:24:02;23.33;;;8.23;;
72895;SDS011;61036;53.224;6.554;2024-02-21T06:26:28;21.27;;;7.63;;
72895;SDS011;61036;53.224;6.554;2024-02-21T06:28:54;26.63;;;8.00;;
72895;SDS011;61036;53.224;6.554;2024-02-21T06:31:19;23.23;;;8.37;;
72895;SDS011;61036;53.224;6.554;2024-02-21T06:33:44;22.83;;;7.70;;
72895;SDS011;61036;53.224;6.554;2024-02-21T06:36:10;21.33;;;8.37;;
72895;SDS011;61036;53.224;6.554;2024-02-21T06:38:35;22.67;;;7.77;;
72895;SDS011;61036;53.224;6.554;2024-02-21T06:41:01;22.73;;;8.47;;
72895;SDS011;61036;53.224;6.554;2024-02-21T06:43:27;24.30;;;7.97;;
72895;SDS011;61036;53.224;6.554;2024-02-21T06:45:53;16.07;;;7.50;;
72895;SDS011;61036;53.224;6.554;2024-02-21T06:48:20;21.60;;;7.27;;
72895;SDS011;61036;53.224;6.554;2024-02-21T06:50:45;23.80;;;7.83;;
72895;SDS011;61036;53.224;6.554;2024-02-21T06:53:11;17.27;;;6.97;;
72895;SDS011;61036;53.224;6.554;2024-02-21T06:55:40;17.33;;;7.33;;
72895;SDS011;61036;53.224;6.554;2024-02-21T06:58:05;26.23;;;9.00;;
72895;SDS011;61036;53.224;6.554;2024-02-21T07:00:33;20.03;;;8.37;;
72895;SDS011;61036;53.224;6.554;2024-02-21T07:02:59;26.70;;;8.77;;
72895;SDS011;61036;53.224;6.554;2024-02-21T07:05:24;22.23;;;8.37;;
72895;SDS011;61036;53.224;6.554;2024-02-21T07:07:50;23.70;;;8.90;;
72895;SDS011;61036;53.224;6.554;2024-02-21T07:10:15;27.00;;;9.67;;
72895;SDS011;61036;53.224;6.554;2024-02-21T07:12:41;21.33;;;9.37;;
72895;SDS011;61036;53.224;6.554;2024-02-21T07:15:09;25.20;;;9.87;;
72895;SDS011;61036;53.224;6.554;2024-02-21T07:17:35;27.57;;;9.37;;
72895;SDS011;61036;53.224;6.554;2024-02-21T07:20:01;30.33;;;10.23;;
72895;SDS011;61036;53.224;6.554;2024-02-21T07:22:26;23.00;;;10.47;;
72895;SDS011;61036;53.224;6.554;2024-02-21T07:24:52;28.60;;;11.63;;
72895;SDS011;61036;53.224;6.554;2024-02-21T07:27:17;34.13;;;14.93;;
72895;SDS011;61036;53.224;6.554;2024-02-21T07:29:43;39.13;;;16.20;;
72895;SDS011;61036;53.224;6.554;2024-02-21T07:32:13;45.13;;;16.57;;
72895;SDS011;61036;53.224;6.554;2024-02-21T07:34:38;45.13;;;17.87;;
72895;SDS011;61036;53.224;6.554;2024-02-21T07:37:04;43.60;;;18.13;;
72895;SDS011;61036;53.224;6.554;2024-02-21T07:39:29;41.23;;;18.83;;
72895;SDS011;61036;53.224;6.554;2024-02-21T07:41:55;45.17;;;17.77;;
72895;SDS011;61036;53.224;6.554;2024-02-21T07:44:20;39.87;;;17.43;;
72895;SDS011;61036;53.224;6.554;2024-02-21T07:46:46;44.40;;;17.90;;
72895;SDS011;61036;53.224;6.554;2024-02-21T07:49:11;42.73;;;17.20;;
72895;SDS011;61036;53.224;6.554;2024-02-21T07:51:37;41.87;;;18.03;;
72895;SDS011;61036;53.224;6.554;2024-02-21T07:54:02;39.87;;;15.93;;
72895;SDS011;61036;53.224;6.554;2024-02-21T07:56:29;35.63;;;14.50;;
72895;SDS011;61036;53.224;6.554;2024-02-21T07:58:55;33.93;;;13.50;;
72895;SDS011;61036;53.224;6.554;2024-02-21T08:01:20;35.47;;;12.80;;
72895;SDS011;61036;53.224;6.554;2024-02-21T08:03:46;32.63;;;11.00;;
72895;SDS011;61036;53.224;6.554;2024-02-21T08:06:12;30.10;;;10.47;;
72895;SDS011;61036;53.224;6.554;2024-02-21T08:08:38;29.13;;;9.00;;
72895;SDS011;61036;53.224;6.554;2024-02-21T08:11:04;25.80;;;9.27;;
72895;SDS011;61036;53.224;6.554;2024-02-21T08:13:30;21.07;;;8.50;;
72895;SDS011;61036;53.224;6.554;2024-02-21T08:15:56;25.43;;;9.07;;
72895;SDS011;61036;53.224;6.554;2024-02-21T08:18:22;23.57;;;7.47;;
72895;SDS011;61036;53.224;6.554;2024-02-21T08:20:48;18.67;;;7.20;;
72895;SDS011;61036;53.224;6.554;2024-02-21T08:23:18;23.33;;;6.60;;
72895;SDS011;61036;53.224;6.554;2024-02-21T08:25:44;20.47;;;8.23;;
72895;SDS011;61036;53.224;6.554;2024-02-21T08:28:09;20.93;;;7.53;;
72895;SDS011;61036;53.224;6.554;2024-02-21T08:30:35;19.20;;;8.20;;
72895;SDS011;61036;53.224;6.554;2024-02-21T08:33:00;17.70;;;7.27;;
72895;SDS011;61036;53.224;6.554;2024-02-21T08:35:26;21.80;;;7.60;;
72895;SDS011;61036;53.224;6.554;2024-02-21T08:37:51;20.07;;;7.37;;
72895;SDS011;61036;53.224;6.554;2024-02-21T08:40:17;19.37;;;7.33;;
72895;SDS011;61036;53.224;6.554;2024-02-21T08:42:46;20.40;;;7.93;;
72895;SDS011;61036;53.224;6.554;2024-02-21T08:45:11;20.27;;;7.50;;
72895;SDS011;61036;53.224;6.554;2024-02-21T08:47:40;18.57;;;7.07;;
72895;SDS011;61036;53.224;6.554;2024-02-21T08:50:06;19.47;;;8.17;;
72895;SDS011;61036;53.224;6.554;2024-02-21T08:52:34;19.57;;;7.33;;
72895;SDS011;61036;53.224;6.554;2024-02-21T08:55:00;18.53;;;7.10;;
72895;SDS011;61036;53.224;6.554;2024-02-21T08:57:26;17.17;;;8.03;;
72895;SDS011;61036;53.224;6.554;2024-02-21T08:59:52;20.80;;;9.07;;
72895;SDS011;61036;53.224;6.554;2024-02-21T09:02:18;19.73;;;8.73;;
72895;SDS011;61036;53.224;6.554;2024-02-21T09:04:43;24.27;;;9.47;;
72895;SDS011;61036;53.224;6.554;2024-02-21T09:07:09;25.00;;;10.73;;
72895;SDS011;61036;53.224;6.554;2024-02-21T09:09:35;24.87;;;11.07;;
72895;SDS011;61036;53.224;6.554;2024-02-21T09:12:01;22.33;;;11.23;;
72895;SDS011;61036;53.224;6.554;2024-02-21T09:14:31;23.60;;;10.70;;
72895;SDS011;61036;53.224;6.554;2024-02-21T09:16:57;19.17;;;11.07;;
72895;SDS011;61036;53.224;6.554;2024-02-21T09:19:23;21.20;;;11.73;;
72895;SDS011;61036;53.224;6.554;2024-02-21T09:21:48;22.50;;;12.07;;
72895;SDS011;61036;53.224;6.554;2024-02-21T09:24:14;26.57;;;12.83;;
72895;SDS011;61036;53.224;6.554;2024-02-21T09:26:39;22.97;;;14.03;;
72895;SDS011;61036;53.224;6.554;2024-02-21T09:29:05;25.53;;;14.70;;
72895;SDS011;61036;53.224;6.554;2024-02-21T09:31:31;27.20;;;14.23;;
72895;SDS011;61036;53.224;6.554;2024-02-21T09:33:56;24.57;;;15.30;;
72895;SDS011;61036;53.224;6.554;2024-02-21T09:36:22;23.47;;;14.97;;
72895;SDS011;61036;53.224;6.554;2024-02-21T09:38:47;24.17;;;15.33;;
72895;SDS011;61036;53.224;6.554;2024-02-21T09:43:45;25.60;;;14.40;;
72895;SDS011;61036;53.224;6.554;2024-02-21T09:46:15;32.13;;;17.40;;
72895;SDS011;61036;53.224;6.554;2024-02-21T09:48:54;27.57;;;16.17;;
72895;SDS011;61036;53.224;6.554;2024-02-21T09:51:30;25.37;;;15.33;;
72895;SDS011;61036;53.224;6.554;2024-02-21T09:53:57;29.67;;;16.00;;
72895;SDS011;61036;53.224;6.554;2024-02-21T09:56:24;29.17;;;16.13;;
72895;SDS011;61036;53.224;6.554;2024-02-21T09:58:50;29.30;;;15.13;;
72895;SDS011;61036;53.224;6.554;2024-02-21T10:01:15;25.43;;;15.43;;
72895;SDS011;61036;53.224;6.554;2024-02-21T10:03:41;26.63;;;15.40;;
72895;SDS011;61036;53.224;6.554;2024-02-21T10:06:08;24.57;;;15.23;;
72895;SDS011;61036;53.224;6.554;2024-02-21T10:08:34;27.70;;;16.63;;
72895;SDS011;61036;53.224;6.554;2024-02-21T10:11:00;24.67;;;15.63;;
72895;SDS011;61036;53.224;6.554;2024-02-21T10:13:28;25.00;;;15.10;;
72895;SDS011;61036;53.224;6.554;2024-02-21T10:16:04;24.23;;;14.80;;
72895;SDS011;61036;53.224;6.554;2024-02-21T10:18:31;20.77;;;15.07;;
72895;SDS011;61036;53.224;6.554;2024-02-21T10:21:01;23.00;;;14.77;;
72895;SDS011;61036;53.224;6.554;2024-02-21T10:26:08;24.10;;;14.83;;
72895;SDS011;61036;53.224;6.554;2024-02-21T10:28:34;22.70;;;14.63;;
72895;SDS011;61036;53.224;6.554;2024-02-21T10:31:00;23.37;;;15.93;;
72895;SDS011;61036;53.224;6.554;2024-02-21T10:33:25;25.50;;;16.97;;
72895;SDS011;61036;53.224;6.554;2024-02-21T10:35:53;25.33;;;16.43;;
72895;SDS011;61036;53.224;6.554;2024-02-21T10:38:18;24.70;;;16.87;;
72895;SDS011;61036;53.224;6.554;2024-02-21T10:40:44;28.17;;;17.30;;
72895;SDS011;61036;53.224;6.554;2024-02-21T10:43:12;27.30;;;17.37;;
72895;SDS011;61036;53.224;6.554;2024-02-21T10:45:39;27.33;;;18.07;;
72895;SDS011;61036;53.224;6.554;2024-02-21T10:48:14;26.87;;;18.33;;
72895;SDS011;61036;53.224;6.554;2024-02-21T10:50:45;31.83;;;19.40;;
72895;SDS011;61036;53.224;6.554;2024-02-21T10:56:29;27.83;;;19.33;;
72895;SDS011;61036;53.224;6.554;2024-02-21T10:58:58;30.63;;;19.67;;
72895;SDS011;61036;53.224;6.554;2024-02-21T11:01:26;28.80;;;19.33;;
72895;SDS011;61036;53.224;6.554;2024-02-21T11:03:54;25.57;;;18.87;;
72895;SDS011;61036;53.224;6.554;2024-02-21T11:06:21;27.40;;;18.50;;
72895;SDS011;61036;53.224;6.554;2024-02-21T11:08:58;26.83;;;18.53;;
72895;SDS011;61036;53.224;6.554;2024-02-21T11:11:25;25.00;;;17.53;;
72895;SDS011;61036;53.224;6.554;2024-02-21T11:13:50;32.00;;;19.53;;
72895;SDS011;61036;53.224;6.554;2024-02-21T11:16:22;28.83;;;18.80;;
72895;SDS011;61036;53.224;6.554;2024-02-21T11:18:48;27.43;;;18.00;;
72895;SDS011;61036;53.224;6.554;2024-02-21T11:21:13;28.17;;;17.37;;
72895;SDS011;61036;53.224;6.554;2024-02-21T11:23:39;27.10;;;17.93;;
72895;SDS011;61036;53.224;6.554;2024-02-21T11:26:08;28.37;;;17.90;;
72895;SDS011;61036;53.224;6.554;2024-02-21T11:28:44;24.20;;;16.70;;
72895;SDS011;61036;53.224;6.554;2024-02-21T11:31:13;23.60;;;16.57;;
72895;SDS011;61036;53.224;6.554;2024-02-21T11:33:39;23.43;;;16.03;;
72895;SDS011;61036;53.224;6.554;2024-02-21T11:36:07;26.60;;;16.70;;
72895;SDS011;61036;53.224;6.554;2024-02-21T11:38:33;25.23;;;16.30;;
72895;SDS011;61036;53.224;6.554;2024-02-21T11:40:59;25.93;;;16.43;;
72895;SDS011;61036;53.224;6.554;2024-02-21T11:43:24;21.93;;;14.43;;
72895;SDS011;61036;53.224;6.554;2024-02-21T11:45:50;22.53;;;14.17;;
72895;SDS011;61036;53.224;6.554;2024-02-21T11:48:24;19.50;;;13.57;;
72895;SDS011;61036;53.224;6.554;2024-02-21T11:50:56;20.43;;;14.23;;
72895;SDS011;61036;53.224;6.554;2024-02-21T11:53:22;20.53;;;14.17;;
72895;SDS011;61036;53.224;6.554;2024-02-21T11:55:48;18.53;;;13.00;;
72895;SDS011;61036;53.224;6.554;2024-02-21T11:58:15;21.17;;;13.63;;
72895;SDS011;61036;53.224;6.554;2024-02-21T12:00:41;21.53;;;13.43;;
72895;SDS011;61036;53.224;6.554;2024-02-21T12:03:07;18.67;;;13.37;;
72895;SDS011;61036;53.224;6.554;2024-02-21T12:05:33;22.00;;;14.07;;
72895;SDS011;61036;53.224;6.554;2024-02-21T12:07:59;19.47;;;12.73;;
72895;SDS011;61036;53.224;6.554;2024-02-21T12:10:28;20.00;;;12.50;;
72895;SDS011;61036;53.224;6.554;2024-02-21T12:12:53;23.67;;;13.37;;
72895;SDS011;61036;53.224;6.554;2024-02-21T12:15:23;17.80;;;11.47;;
72895;SDS011;61036;53.224;6.554;2024-02-21T12:17:49;18.73;;;12.50;;
72895;SDS011;61036;53.224;6.554;2024-02-21T12:20:17;19.60;;;13.20;;
72895;SDS011;61036;53.224;6.554;2024-02-21T12:22:42;20.87;;;12.23;;
72895;SDS011;61036;53.224;6.554;2024-02-21T12:25:17;18.47;;;11.83;;
72895;SDS011;61036;53.224;6.554;2024-02-21T12:27:47;17.63;;;11.27;;
72895;SDS011;61036;53.224;6.554;2024-02-21T12:30:14;18.20;;;11.27;;
72895;SDS011;61036;53.224;6.554;2024-02-21T12:32:41;19.73;;;11.03;;
72895;SDS011;61036;53.224;6.554;2024-02-21T12:35:07;15.20;;;10.00;;
72895;SDS011;61036;53.224;6.554;2024-02-21T12:37:33;18.13;;;11.43;;
72895;SDS011;61036;53.224;6.554;2024-02-21T12:39:58;17.00;;;11.00;;
72895;SDS011;61036;53.224;6.554;2024-02-21T12:42:25;16.07;;;10.10;;
72895;SDS011;61036;53.224;6.554;2024-02-21T12:44:51;17.57;;;10.40;;
72895;SDS011;61036;53.224;6.554;2024-02-21T12:47:18;16.90;;;10.27;;
72895;SDS011;61036;53.224;6.554;2024-02-21T12:49:45;19.53;;;9.57;;
72895;SDS011;61036;53.224;6.554;2024-02-21T12:52:11;14.27;;;8.60;;
72895;SDS011;61036;53.224;6.554;2024-02-21T12:54:38;17.67;;;10.10;;
72895;SDS011;61036;53.224;6.554;2024-02-21T12:57:04;14.40;;;9.40;;
72895;SDS011;61036;53.224;6.554;2024-02-21T12:59:29;15.23;;;9.43;;
72895;SDS011;61036;53.224;6.554;2024-02-21T13:01:55;16.03;;;9.43;;
72895;SDS011;61036;53.224;6.554;2024-02-21T13:04:21;16.47;;;10.03;;
72895;SDS011;61036;53.224;6.554;2024-02-21T13:06:48;15.07;;;8.87;;
72895;SDS011;61036;53.224;6.554;2024-02-21T13:09:14;13.47;;;8.80;;
72895;SDS011;61036;53.224;6.554;2024-02-21T13:11:40;12.37;;;8.50;;
72895;SDS011;61036;53.224;6.554;2024-02-21T13:14:06;12.37;;;8.87;;
72895;SDS011;61036;53.224;6.554;2024-02-21T13:16:32;16.97;;;8.37;;
72895;SDS011;61036;53.224;6.554;2024-02-21T13:19:04;12.10;;;7.70;;
72895;SDS011;61036;53.224;6.554;2024-02-21T13:21:30;11.87;;;8.17;;
72895;SDS011;61036;53.224;6.554;2024-02-21T13:23:55;14.53;;;8.10;;
72895;SDS011;61036;53.224;6.554;2024-02-21T13:26:22;13.53;;;8.17;;
72895;SDS011;61036;53.224;6.554;2024-02-21T13:28:47;13.67;;;8.10;;
72895;SDS011;61036;53.224;6.554;2024-02-21T13:31:14;13.20;;;7.47;;
72895;SDS011;61036;53.224;6.554;2024-02-21T13:33:41;14.87;;;7.77;;
72895;SDS011;61036;53.224;6.554;2024-02-21T13:36:07;10.07;;;6.63;;
72895;SDS011;61036;53.224;6.554;2024-02-21T13:38:33;12.60;;;8.03;;
72895;SDS011;61036;53.224;6.554;2024-02-21T13:40:58;15.80;;;7.37;;
72895;SDS011;61036;53.224;6.554;2024-02-21T13:43:25;12.70;;;7.80;;
72895;SDS011;61036;53.224;6.554;2024-02-21T13:45:57;10.90;;;6.70;;
72895;SDS011;61036;53.224;6.554;2024-02-21T13:48:27;11.33;;;7.00;;
72895;SDS011;61036;53.224;6.554;2024-02-21T13:50:54;11.87;;;6.60;;
72895;SDS011;61036;53.224;6.554;2024-02-21T13:53:20;10.20;;;7.00;;
72895;SDS011;61036;53.224;6.554;2024-02-21T13:55:46;9.53;;;6.27;;
72895;SDS011;61036;53.224;6.554;2024-02-21T13:58:12;9.37;;;6.70;;
72895;SDS011;61036;53.224;6.554;2024-02-21T14:00:37;11.77;;;6.67;;
72895;SDS011;61036;53.224;6.554;2024-02-21T14:03:03;8.97;;;6.00;;
72895;SDS011;61036;53.224;6.554;2024-02-21T14:05:29;10.73;;;6.20;;
72895;SDS011;61036;53.224;6.554;2024-02-21T14:07:55;10.63;;;7.23;;
72895;SDS011;61036;53.224;6.554;2024-02-21T14:10:21;11.07;;;6.70;;
72895;SDS011;61036;53.224;6.554;2024-02-21T14:12:47;9.80;;;6.53;;
72895;SDS011;61036;53.224;6.554;2024-02-21T14:15:15;10.13;;;6.40;;
72895;SDS011;61036;53.224;6.554;2024-02-21T14:17:44;9.67;;;6.03;;
72895;SDS011;61036;53.224;6.554;2024-02-21T14:20:10;9.00;;;6.00;;
72895;SDS011;61036;53.224;6.554;2024-02-21T14:22:35;12.40;;;6.90;;
72895;SDS011;61036;53.224;6.554;2024-02-21T14:25:03;9.00;;;6.00;;
72895;SDS011;61036;53.224;6.554;2024-02-21T14:27:32;8.50;;;6.47;;
72895;SDS011;61036;53.224;6.554;2024-02-21T14:29:57;12.27;;;6.57;;
72895;SDS011;61036;53.224;6.554;2024-02-21T14:32:23;12.37;;;7.00;;
72895;SDS011;61036;53.224;6.554;2024-02-21T14:34:48;11.00;;;6.77;;